sensor_id;sensor_type;location;lat;lon;timestamp;P1;durP1;ratioP1;P2;durP2;ratioP2
13374;SDS011;6756;51.354;15.754;2023-02-15T00:00:13;35.53;;;16.93;;
13374;SDS011;6756;51.354;15.754;2023-02-15T00:04:14;37.90;;;16.77;;
13374;SDS011;6756;51.354;15.754;2023-02-15T00:08:17;33.83;;;16.87;;
13374;SDS011;6756;51.354;15.754;2023-02-15T00:12:17;37.60;;;17.83;;
13374;SDS011;6756;51.354;15.754;2023-02-15T00:16:18;33.50;;;16.43;;
13374;SDS011;6756;51.354;15.754;2023-02-15T00:20:19;38.33;;;16.67;;
13374;SDS011;6756;51.354;15.754;2023-02-15T00:24:20;36.20;;;17.57;;
13374;SDS011;6756;51.354;15.754;2023-02-15T00:28:21;33.80;;;15.97;;
13374;SDS011;6756;51.354;15.754;2023-02-15T00:32:22;32.47;;;15.37;;
13374;SDS011;6756;51.354;15.754;2023-02-15T00:36:22;31.13;;;14.93;;
13374;SDS011;6756;51.354;15.754;2023-02-15T00:40:23;35.40;;;17.13;;
13374;SDS011;6756;51.354;15.754;2023-02-15T00:44:24;32.67;;;16.27;;
13374;SDS011;6756;51.354;15.754;2023-02-15T00:48:25;34.00;;;15.87;;
13374;SDS011;6756;51.354;15.754;2023-02-15T00:52:26;35.17;;;16.80;;
13374;SDS011;6756;51.354;15.754;2023-02-15T00:56:27;39.87;;;18.30;;
13374;SDS011;6756;51.354;15.754;2023-02-15T01:00:28;35.47;;;17.07;;
13374;SDS011;6756;51.354;15.754;2023-02-15T01:04:29;37.00;;;16.27;;
13374;SDS011;6756;51.354;15.754;2023-02-15T01:08:30;30.80;;;15.27;;
13374;SDS011;6756;51.354;15.754;2023-02-15T01:12:31;36.10;;;15.57;;
13374;SDS011;6756;51.354;15.754;2023-02-15T01:16:31;36.13;;;17.53;;
13374;SDS011;6756;51.354;15.754;2023-02-15T01:20:34;42.97;;;18.20;;
13374;SDS011;6756;51.354;15.754;2023-02-15T01:24:38;40.53;;;19.03;;
13374;SDS011;6756;51.354;15.754;2023-02-15T01:28:39;43.87;;;19.83;;
13374;SDS011;6756;51.354;15.754;2023-02-15T01:32:41;36.00;;;16.70;;
13374;SDS011;6756;51.354;15.754;2023-02-15T01:36:42;39.60;;;18.10;;
13374;SDS011;6756;51.354;15.754;2023-02-15T01:40:43;35.60;;;15.03;;
13374;SDS011;6756;51.354;15.754;2023-02-15T01:44:48;34.43;;;16.63;;
13374;SDS011;6756;51.354;15.754;2023-02-15T01:48:51;37.60;;;15.73;;
13374;SDS011;6756;51.354;15.754;2023-02-15T01:53:00;34.37;;;15.00;;
13374;SDS011;6756;51.354;15.754;2023-02-15T01:57:03;33.30;;;16.93;;
13374;SDS011;6756;51.354;15.754;2023-02-15T02:01:08;38.30;;;16.40;;
13374;SDS011;6756;51.354;15.754;2023-02-15T02:05:09;38.07;;;17.70;;
13374;SDS011;6756;51.354;15.754;2023-02-15T02:09:09;42.70;;;20.33;;
13374;SDS011;6756;51.354;15.754;2023-02-15T02:13:10;51.20;;;24.23;;
13374;SDS011;6756;51.354;15.754;2023-02-15T02:42:55;32.13;;;15.00;;
13374;SDS011;6756;51.354;15.754;2023-02-15T02:51:27;33.83;;;15.43;;
13374;SDS011;6756;51.354;15.754;2023-02-15T02:55:32;35.77;;;16.57;;
13374;SDS011;6756;51.354;15.754;2023-02-15T02:59:42;44.37;;;18.67;;
13374;SDS011;6756;51.354;15.754;2023-02-15T03:03:48;39.67;;;19.03;;
13374;SDS011;6756;51.354;15.754;2023-02-15T03:07:57;43.77;;;20.33;;
13374;SDS011;6756;51.354;15.754;2023-02-15T03:12:05;44.90;;;20.63;;
13374;SDS011;6756;51.354;15.754;2023-02-15T03:16:06;45.23;;;20.33;;
13374;SDS011;6756;51.354;15.754;2023-02-15T03:20:29;42.57;;;19.13;;
13374;SDS011;6756;51.354;15.754;2023-02-15T03:24:38;36.80;;;17.80;;
13374;SDS011;6756;51.354;15.754;2023-02-15T03:28:45;41.90;;;18.77;;
13374;SDS011;6756;51.354;15.754;2023-02-15T03:32:48;42.33;;;20.20;;
13374;SDS011;6756;51.354;15.754;2023-02-15T03:40:58;49.27;;;20.97;;
13374;SDS011;6756;51.354;15.754;2023-02-15T03:45:10;46.47;;;20.93;;
13374;SDS011;6756;51.354;15.754;2023-02-15T03:53:26;42.53;;;19.23;;
13374;SDS011;6756;51.354;15.754;2023-02-15T03:57:28;39.67;;;18.20;;
13374;SDS011;6756;51.354;15.754;2023-02-15T04:02:11;41.73;;;18.70;;
13374;SDS011;6756;51.354;15.754;2023-02-15T04:06:11;37.77;;;17.13;;
13374;SDS011;6756;51.354;15.754;2023-02-15T04:10:12;40.53;;;19.87;;
13374;SDS011;6756;51.354;15.754;2023-02-15T04:14:31;50.07;;;23.40;;
13374;SDS011;6756;51.354;15.754;2023-02-15T04:18:51;45.00;;;20.63;;
13374;SDS011;6756;51.354;15.754;2023-02-15T04:23:10;46.97;;;20.67;;
13374;SDS011;6756;51.354;15.754;2023-02-15T04:27:29;41.80;;;18.43;;
13374;SDS011;6756;51.354;15.754;2023-02-15T04:31:30;40.87;;;17.57;;
13374;SDS011;6756;51.354;15.754;2023-02-15T04:35:31;45.47;;;20.13;;
13374;SDS011;6756;51.354;15.754;2023-02-15T04:39:33;48.60;;;20.10;;
13374;SDS011;6756;51.354;15.754;2023-02-15T04:43:34;45.23;;;19.83;;
13374;SDS011;6756;51.354;15.754;2023-02-15T04:47:34;37.53;;;17.63;;
13374;SDS011;6756;51.354;15.754;2023-02-15T04:51:35;38.00;;;17.20;;
13374;SDS011;6756;51.354;15.754;2023-02-15T04:55:36;36.37;;;17.47;;
13374;SDS011;6756;51.354;15.754;2023-02-15T04:59:37;37.80;;;16.80;;
13374;SDS011;6756;51.354;15.754;2023-02-15T05:03:38;38.37;;;18.43;;
13374;SDS011;6756;51.354;15.754;2023-02-15T05:07:39;39.83;;;19.53;;
13374;SDS011;6756;51.354;15.754;2023-02-15T05:11:40;43.97;;;19.43;;
13374;SDS011;6756;51.354;15.754;2023-02-15T05:15:41;50.97;;;20.07;;
13374;SDS011;6756;51.354;15.754;2023-02-15T05:19:41;52.90;;;21.83;;
13374;SDS011;6756;51.354;15.754;2023-02-15T05:23:42;52.97;;;22.07;;
13374;SDS011;6756;51.354;15.754;2023-02-15T05:27:43;67.00;;;27.33;;
13374;SDS011;6756;51.354;15.754;2023-02-15T05:32:02;64.80;;;25.33;;
13374;SDS011;6756;51.354;15.754;2023-02-15T05:36:04;53.90;;;23.40;;
13374;SDS011;6756;51.354;15.754;2023-02-15T05:40:05;49.20;;;21.90;;
13374;SDS011;6756;51.354;15.754;2023-02-15T05:44:07;45.30;;;20.77;;
13374;SDS011;6756;51.354;15.754;2023-02-15T05:48:07;52.73;;;22.07;;
13374;SDS011;6756;51.354;15.754;2023-02-15T05:52:08;49.53;;;22.13;;
13374;SDS011;6756;51.354;15.754;2023-02-15T05:56:10;51.60;;;22.97;;
13374;SDS011;6756;51.354;15.754;2023-02-15T06:00:11;50.93;;;24.83;;
13374;SDS011;6756;51.354;15.754;2023-02-15T06:04:13;88.20;;;31.27;;
13374;SDS011;6756;51.354;15.754;2023-02-15T06:08:14;95.33;;;29.23;;
13374;SDS011;6756;51.354;15.754;2023-02-15T06:12:15;95.37;;;29.40;;
13374;SDS011;6756;51.354;15.754;2023-02-15T06:16:16;109.07;;;37.53;;
13374;SDS011;6756;51.354;15.754;2023-02-15T06:20:17;125.47;;;42.27;;
13374;SDS011;6756;51.354;15.754;2023-02-15T06:24:18;107.57;;;41.60;;
13374;SDS011;6756;51.354;15.754;2023-02-15T06:28:18;89.00;;;35.27;;
13374;SDS011;6756;51.354;15.754;2023-02-15T06:32:19;103.33;;;38.53;;
13374;SDS011;6756;51.354;15.754;2023-02-15T06:36:20;88.07;;;36.10;;
13374;SDS011;6756;51.354;15.754;2023-02-15T06:40:21;73.67;;;29.90;;
13374;SDS011;6756;51.354;15.754;2023-02-15T06:44:22;63.27;;;27.10;;
13374;SDS011;6756;51.354;15.754;2023-02-15T06:48:22;60.43;;;25.00;;
13374;SDS011;6756;51.354;15.754;2023-02-15T06:52:23;51.20;;;24.10;;
13374;SDS011;6756;51.354;15.754;2023-02-15T06:56:24;50.23;;;23.40;;
13374;SDS011;6756;51.354;15.754;2023-02-15T07:00:25;53.00;;;24.83;;
13374;SDS011;6756;51.354;15.754;2023-02-15T07:04:26;57.23;;;25.70;;
13374;SDS011;6756;51.354;15.754;2023-02-15T07:08:29;60.33;;;27.17;;
13374;SDS011;6756;51.354;15.754;2023-02-15T07:12:30;54.57;;;25.67;;
13374;SDS011;6756;51.354;15.754;2023-02-15T07:16:44;62.77;;;27.03;;
13374;SDS011;6756;51.354;15.754;2023-02-15T07:20:44;61.23;;;28.27;;
13374;SDS011;6756;51.354;15.754;2023-02-15T07:24:46;76.03;;;35.77;;
13374;SDS011;6756;51.354;15.754;2023-02-15T07:28:49;75.70;;;35.80;;
13374;SDS011;6756;51.354;15.754;2023-02-15T07:32:50;84.20;;;36.20;;
13374;SDS011;6756;51.354;15.754;2023-02-15T07:37:09;83.50;;;36.17;;
13374;SDS011;6756;51.354;15.754;2023-02-15T07:41:11;88.63;;;41.03;;
13374;SDS011;6756;51.354;15.754;2023-02-15T07:45:13;112.03;;;47.77;;
13374;SDS011;6756;51.354;15.754;2023-02-15T07:49:14;148.57;;;62.77;;
13374;SDS011;6756;51.354;15.754;2023-02-15T07:53:14;135.90;;;60.77;;
13374;SDS011;6756;51.354;15.754;2023-02-15T07:57:15;139.13;;;60.53;;
13374;SDS011;6756;51.354;15.754;2023-02-15T08:01:23;135.97;;;62.70;;
13374;SDS011;6756;51.354;15.754;2023-02-15T08:05:30;131.10;;;56.30;;
13374;SDS011;6756;51.354;15.754;2023-02-15T08:09:31;122.27;;;52.67;;
13374;SDS011;6756;51.354;15.754;2023-02-15T08:13:32;104.33;;;47.60;;
13374;SDS011;6756;51.354;15.754;2023-02-15T08:17:35;91.80;;;44.27;;
13374;SDS011;6756;51.354;15.754;2023-02-15T08:21:38;75.77;;;37.13;;
13374;SDS011;6756;51.354;15.754;2023-02-15T08:25:40;71.83;;;36.67;;
13374;SDS011;6756;51.354;15.754;2023-02-15T08:29:41;65.63;;;33.27;;
13374;SDS011;6756;51.354;15.754;2023-02-15T08:33:45;70.77;;;35.23;;
13374;SDS011;6756;51.354;15.754;2023-02-15T08:37:47;65.27;;;34.60;;
13374;SDS011;6756;51.354;15.754;2023-02-15T08:41:48;69.80;;;34.57;;
13374;SDS011;6756;51.354;15.754;2023-02-15T08:45:49;70.70;;;36.30;;
13374;SDS011;6756;51.354;15.754;2023-02-15T08:49:50;65.87;;;32.90;;
13374;SDS011;6756;51.354;15.754;2023-02-15T08:53:52;61.73;;;32.13;;
13374;SDS011;6756;51.354;15.754;2023-02-15T08:57:54;64.90;;;33.77;;
13374;SDS011;6756;51.354;15.754;2023-02-15T09:01:55;59.63;;;32.23;;
13374;SDS011;6756;51.354;15.754;2023-02-15T09:05:57;57.60;;;31.13;;
13374;SDS011;6756;51.354;15.754;2023-02-15T09:09:59;60.20;;;32.23;;
13374;SDS011;6756;51.354;15.754;2023-02-15T09:14:02;58.60;;;33.03;;
13374;SDS011;6756;51.354;15.754;2023-02-15T09:18:08;55.37;;;30.17;;
13374;SDS011;6756;51.354;15.754;2023-02-15T09:22:09;51.33;;;29.77;;
13374;SDS011;6756;51.354;15.754;2023-02-15T09:26:10;53.60;;;30.37;;
13374;SDS011;6756;51.354;15.754;2023-02-15T09:30:13;47.03;;;27.00;;
13374;SDS011;6756;51.354;15.754;2023-02-15T09:34:14;48.17;;;28.40;;
13374;SDS011;6756;51.354;15.754;2023-02-15T09:38:17;47.13;;;27.00;;
13374;SDS011;6756;51.354;15.754;2023-02-15T10:08:38;38.03;;;24.23;;
13374;SDS011;6756;51.354;15.754;2023-02-15T10:21:28;35.77;;;22.70;;
13374;SDS011;6756;51.354;15.754;2023-02-15T10:26:16;34.20;;;22.33;;
13374;SDS011;6756;51.354;15.754;2023-02-15T10:30:14;33.07;;;21.73;;
13374;SDS011;6756;51.354;15.754;2023-02-15T10:34:26;35.90;;;22.47;;
13374;SDS011;6756;51.354;15.754;2023-02-15T10:47:32;34.63;;;22.80;;
13374;SDS011;6756;51.354;15.754;2023-02-15T10:52:07;31.67;;;21.23;;
13374;SDS011;6756;51.354;15.754;2023-02-15T10:56:24;28.57;;;20.47;;
13374;SDS011;6756;51.354;15.754;2023-02-15T11:05:20;31.60;;;21.77;;
13374;SDS011;6756;51.354;15.754;2023-02-15T11:09:38;29.93;;;20.83;;
13374;SDS011;6756;51.354;15.754;2023-02-15T11:13:48;27.90;;;18.93;;
13374;SDS011;6756;51.354;15.754;2023-02-15T11:22:23;31.57;;;21.17;;
13374;SDS011;6756;51.354;15.754;2023-02-15T11:31:12;31.70;;;21.00;;
13374;SDS011;6756;51.354;15.754;2023-02-15T11:39:32;33.33;;;22.53;;
13374;SDS011;6756;51.354;15.754;2023-02-15T11:43:37;37.50;;;24.03;;
13374;SDS011;6756;51.354;15.754;2023-02-15T11:47:45;34.37;;;22.90;;
13374;SDS011;6756;51.354;15.754;2023-02-15T11:51:46;31.23;;;21.07;;
13374;SDS011;6756;51.354;15.754;2023-02-15T11:55:48;36.43;;;24.00;;
13374;SDS011;6756;51.354;15.754;2023-02-15T11:59:59;36.13;;;24.67;;
13374;SDS011;6756;51.354;15.754;2023-02-15T12:04:22;40.00;;;25.47;;
13374;SDS011;6756;51.354;15.754;2023-02-15T12:08:24;41.23;;;25.67;;
13374;SDS011;6756;51.354;15.754;2023-02-15T12:12:30;38.77;;;26.37;;
13374;SDS011;6756;51.354;15.754;2023-02-15T12:16:45;41.87;;;26.30;;
13374;SDS011;6756;51.354;15.754;2023-02-15T12:20:47;43.43;;;27.90;;
13374;SDS011;6756;51.354;15.754;2023-02-15T12:24:50;42.33;;;27.80;;
13374;SDS011;6756;51.354;15.754;2023-02-15T12:28:53;43.57;;;28.07;;
13374;SDS011;6756;51.354;15.754;2023-02-15T12:32:59;39.70;;;27.53;;
13374;SDS011;6756;51.354;15.754;2023-02-15T12:37:16;39.80;;;26.40;;
13374;SDS011;6756;51.354;15.754;2023-02-15T12:41:22;38.60;;;26.07;;
13374;SDS011;6756;51.354;15.754;2023-02-15T12:45:26;38.83;;;25.63;;
13374;SDS011;6756;51.354;15.754;2023-02-15T12:49:29;36.70;;;23.33;;
13374;SDS011;6756;51.354;15.754;2023-02-15T12:53:33;33.90;;;22.90;;
13374;SDS011;6756;51.354;15.754;2023-02-15T12:57:35;36.57;;;25.13;;
13374;SDS011;6756;51.354;15.754;2023-02-15T13:01:35;31.37;;;22.17;;
13374;SDS011;6756;51.354;15.754;2023-02-15T13:05:38;32.60;;;22.37;;
13374;SDS011;6756;51.354;15.754;2023-02-15T13:09:42;39.13;;;25.50;;
13374;SDS011;6756;51.354;15.754;2023-02-15T13:13:54;35.50;;;24.43;;
13374;SDS011;6756;51.354;15.754;2023-02-15T13:18:01;37.63;;;24.80;;
13374;SDS011;6756;51.354;15.754;2023-02-15T13:26:43;37.90;;;24.40;;
13374;SDS011;6756;51.354;15.754;2023-02-15T13:30:47;35.70;;;24.63;;
13374;SDS011;6756;51.354;15.754;2023-02-15T13:34:49;35.17;;;25.67;;
13374;SDS011;6756;51.354;15.754;2023-02-15T13:42:59;40.30;;;26.73;;
13374;SDS011;6756;51.354;15.754;2023-02-15T13:56:22;37.40;;;23.00;;
13374;SDS011;6756;51.354;15.754;2023-02-15T14:18:13;39.87;;;27.13;;
13374;SDS011;6756;51.354;15.754;2023-02-15T14:22:43;40.87;;;27.60;;
13374;SDS011;6756;51.354;15.754;2023-02-15T14:31:09;40.33;;;28.13;;
13374;SDS011;6756;51.354;15.754;2023-02-15T14:35:17;43.23;;;26.70;;
13374;SDS011;6756;51.354;15.754;2023-02-15T14:39:30;41.50;;;27.67;;
13374;SDS011;6756;51.354;15.754;2023-02-15T14:44:20;38.83;;;25.20;;
13374;SDS011;6756;51.354;15.754;2023-02-15T14:48:33;35.37;;;23.07;;
13374;SDS011;6756;51.354;15.754;2023-02-15T14:53:14;43.67;;;28.60;;
13374;SDS011;6756;51.354;15.754;2023-02-15T14:57:21;43.17;;;27.93;;
13374;SDS011;6756;51.354;15.754;2023-02-15T15:01:33;45.50;;;30.03;;
13374;SDS011;6756;51.354;15.754;2023-02-15T15:05:36;48.63;;;31.23;;
13374;SDS011;6756;51.354;15.754;2023-02-15T15:09:59;51.27;;;30.87;;
13374;SDS011;6756;51.354;15.754;2023-02-15T15:18:43;47.40;;;29.27;;
13374;SDS011;6756;51.354;15.754;2023-02-15T15:22:45;46.53;;;30.87;;
13374;SDS011;6756;51.354;15.754;2023-02-15T15:26:47;44.87;;;28.57;;
13374;SDS011;6756;51.354;15.754;2023-02-15T15:30:50;41.67;;;26.00;;
13374;SDS011;6756;51.354;15.754;2023-02-15T15:48:08;38.27;;;23.70;;
13374;SDS011;6756;51.354;15.754;2023-02-15T15:52:18;38.13;;;24.90;;
13374;SDS011;6756;51.354;15.754;2023-02-15T15:56:43;36.40;;;23.83;;
13374;SDS011;6756;51.354;15.754;2023-02-15T16:00:44;41.20;;;25.97;;
13374;SDS011;6756;51.354;15.754;2023-02-15T16:04:49;41.57;;;24.87;;
13374;SDS011;6756;51.354;15.754;2023-02-15T16:08:50;40.07;;;25.20;;
13374;SDS011;6756;51.354;15.754;2023-02-15T16:12:51;38.93;;;24.30;;
13374;SDS011;6756;51.354;15.754;2023-02-15T16:16:54;39.27;;;23.67;;
13374;SDS011;6756;51.354;15.754;2023-02-15T16:21:00;40.40;;;23.97;;
13374;SDS011;6756;51.354;15.754;2023-02-15T16:29:31;42.57;;;25.43;;
13374;SDS011;6756;51.354;15.754;2023-02-15T16:33:36;38.03;;;22.80;;
13374;SDS011;6756;51.354;15.754;2023-02-15T16:37:39;36.23;;;21.50;;
13374;SDS011;6756;51.354;15.754;2023-02-15T16:41:40;35.33;;;21.13;;
13374;SDS011;6756;51.354;15.754;2023-02-15T16:45:45;35.27;;;20.97;;
13374;SDS011;6756;51.354;15.754;2023-02-15T16:49:47;36.30;;;21.73;;
13374;SDS011;6756;51.354;15.754;2023-02-15T16:53:51;35.80;;;21.63;;
13374;SDS011;6756;51.354;15.754;2023-02-15T16:57:55;37.13;;;20.80;;
13374;SDS011;6756;51.354;15.754;2023-02-15T17:01:59;38.70;;;21.53;;
13374;SDS011;6756;51.354;15.754;2023-02-15T17:06:03;37.70;;;21.53;;
13374;SDS011;6756;51.354;15.754;2023-02-15T17:10:31;40.77;;;23.23;;
13374;SDS011;6756;51.354;15.754;2023-02-15T17:14:37;36.27;;;20.83;;
13374;SDS011;6756;51.354;15.754;2023-02-15T17:18:40;40.93;;;22.83;;
13374;SDS011;6756;51.354;15.754;2023-02-15T17:22:45;36.93;;;20.40;;
13374;SDS011;6756;51.354;15.754;2023-02-15T17:26:48;41.07;;;22.27;;
13374;SDS011;6756;51.354;15.754;2023-02-15T17:30:52;33.10;;;20.70;;
13374;SDS011;6756;51.354;15.754;2023-02-15T17:39:20;38.20;;;22.03;;
13374;SDS011;6756;51.354;15.754;2023-02-15T17:43:22;38.87;;;21.90;;
13374;SDS011;6756;51.354;15.754;2023-02-15T17:47:23;40.23;;;21.30;;
13374;SDS011;6756;51.354;15.754;2023-02-15T17:51:26;42.30;;;23.87;;
13374;SDS011;6756;51.354;15.754;2023-02-15T17:55:27;41.13;;;22.97;;
13374;SDS011;6756;51.354;15.754;2023-02-15T17:59:34;38.93;;;21.47;;
13374;SDS011;6756;51.354;15.754;2023-02-15T18:03:53;38.47;;;21.20;;
13374;SDS011;6756;51.354;15.754;2023-02-15T18:08:14;44.37;;;21.20;;
13374;SDS011;6756;51.354;15.754;2023-02-15T18:12:35;45.13;;;24.40;;
13374;SDS011;6756;51.354;15.754;2023-02-15T18:16:38;189.77;;;68.40;;
13374;SDS011;6756;51.354;15.754;2023-02-15T18:20:42;156.93;;;55.23;;
13374;SDS011;6756;51.354;15.754;2023-02-15T18:24:44;103.33;;;43.50;;
13374;SDS011;6756;51.354;15.754;2023-02-15T18:28:46;77.73;;;35.37;;
13374;SDS011;6756;51.354;15.754;2023-02-15T18:32:48;58.37;;;28.73;;
13374;SDS011;6756;51.354;15.754;2023-02-15T18:36:51;47.77;;;22.40;;
13374;SDS011;6756;51.354;15.754;2023-02-15T18:40:53;39.93;;;21.83;;
13374;SDS011;6756;51.354;15.754;2023-02-15T18:44:58;42.67;;;21.17;;
13374;SDS011;6756;51.354;15.754;2023-02-15T18:49:02;80.33;;;40.77;;
13374;SDS011;6756;51.354;15.754;2023-02-15T18:53:03;84.50;;;40.23;;
13374;SDS011;6756;51.354;15.754;2023-02-15T18:57:08;100.33;;;45.10;;
13374;SDS011;6756;51.354;15.754;2023-02-15T19:01:13;71.57;;;34.77;;
13374;SDS011;6756;51.354;15.754;2023-02-15T19:05:18;63.27;;;30.97;;
13374;SDS011;6756;51.354;15.754;2023-02-15T19:09:21;79.13;;;35.80;;
13374;SDS011;6756;51.354;15.754;2023-02-15T19:13:23;86.73;;;37.37;;
13374;SDS011;6756;51.354;15.754;2023-02-15T19:17:24;79.33;;;39.53;;
13374;SDS011;6756;51.354;15.754;2023-02-15T19:21:29;65.17;;;31.43;;
13374;SDS011;6756;51.354;15.754;2023-02-15T19:25:31;80.23;;;38.40;;
13374;SDS011;6756;51.354;15.754;2023-02-15T19:29:36;78.50;;;38.37;;
13374;SDS011;6756;51.354;15.754;2023-02-15T19:33:37;77.90;;;37.33;;
13374;SDS011;6756;51.354;15.754;2023-02-15T19:37:40;67.93;;;32.83;;
13374;SDS011;6756;51.354;15.754;2023-02-15T19:41:44;66.07;;;33.03;;
13374;SDS011;6756;51.354;15.754;2023-02-15T19:45:45;65.77;;;32.70;;
13374;SDS011;6756;51.354;15.754;2023-02-15T19:49:46;68.43;;;32.10;;
13374;SDS011;6756;51.354;15.754;2023-02-15T19:53:47;65.93;;;32.47;;
13374;SDS011;6756;51.354;15.754;2023-02-15T19:57:49;67.90;;;33.67;;
13374;SDS011;6756;51.354;15.754;2023-02-15T20:01:51;71.37;;;32.37;;
13374;SDS011;6756;51.354;15.754;2023-02-15T20:05:52;67.10;;;32.20;;
13374;SDS011;6756;51.354;15.754;2023-02-15T20:09:53;59.20;;;30.60;;
13374;SDS011;6756;51.354;15.754;2023-02-15T20:13:54;59.07;;;29.80;;
13374;SDS011;6756;51.354;15.754;2023-02-15T20:17:55;57.67;;;29.43;;
13374;SDS011;6756;51.354;15.754;2023-02-15T20:21:57;52.70;;;26.47;;
13374;SDS011;6756;51.354;15.754;2023-02-15T20:25:59;51.80;;;26.70;;
13374;SDS011;6756;51.354;15.754;2023-02-15T20:30:02;52.60;;;27.43;;
13374;SDS011;6756;51.354;15.754;2023-02-15T20:34:03;54.50;;;27.13;;
13374;SDS011;6756;51.354;15.754;2023-02-15T20:38:04;51.67;;;26.00;;
13374;SDS011;6756;51.354;15.754;2023-02-15T20:42:07;49.07;;;25.70;;
13374;SDS011;6756;51.354;15.754;2023-02-15T20:46:11;52.23;;;26.87;;
13374;SDS011;6756;51.354;15.754;2023-02-15T20:50:13;51.10;;;26.63;;
13374;SDS011;6756;51.354;15.754;2023-02-15T20:54:20;46.40;;;26.13;;
13374;SDS011;6756;51.354;15.754;2023-02-15T20:58:32;49.90;;;25.40;;
13374;SDS011;6756;51.354;15.754;2023-02-15T21:02:35;52.50;;;25.43;;
13374;SDS011;6756;51.354;15.754;2023-02-15T21:06:35;53.90;;;25.53;;
13374;SDS011;6756;51.354;15.754;2023-02-15T21:10:37;50.40;;;25.10;;
13374;SDS011;6756;51.354;15.754;2023-02-15T21:14:38;45.93;;;23.27;;
13374;SDS011;6756;51.354;15.754;2023-02-15T21:18:38;49.07;;;24.80;;
13374;SDS011;6756;51.354;15.754;2023-02-15T21:22:41;49.33;;;24.10;;
13374;SDS011;6756;51.354;15.754;2023-02-15T21:26:43;43.67;;;23.93;;
13374;SDS011;6756;51.354;15.754;2023-02-15T21:30:45;53.27;;;24.77;;
13374;SDS011;6756;51.354;15.754;2023-02-15T21:34:47;50.13;;;25.73;;
13374;SDS011;6756;51.354;15.754;2023-02-15T21:38:48;50.67;;;24.70;;
13374;SDS011;6756;51.354;15.754;2023-02-15T21:42:50;45.50;;;24.87;;
13374;SDS011;6756;51.354;15.754;2023-02-15T21:47:16;48.07;;;25.33;;
13374;SDS011;6756;51.354;15.754;2023-02-15T21:51:39;46.63;;;24.50;;
13374;SDS011;6756;51.354;15.754;2023-02-15T21:55:59;45.23;;;23.77;;
13374;SDS011;6756;51.354;15.754;2023-02-15T22:00:02;48.67;;;24.83;;
13374;SDS011;6756;51.354;15.754;2023-02-15T22:04:09;40.53;;;22.53;;
13374;SDS011;6756;51.354;15.754;2023-02-15T22:08:18;50.10;;;24.37;;
13374;SDS011;6756;51.354;15.754;2023-02-15T22:12:19;47.97;;;24.47;;
13374;SDS011;6756;51.354;15.754;2023-02-15T22:16:21;43.87;;;22.97;;
13374;SDS011;6756;51.354;15.754;2023-02-15T22:20:22;49.97;;;23.53;;
13374;SDS011;6756;51.354;15.754;2023-02-15T22:24:24;43.97;;;23.23;;
13374;SDS011;6756;51.354;15.754;2023-02-15T22:28:27;44.03;;;23.47;;
13374;SDS011;6756;51.354;15.754;2023-02-15T22:32:32;41.40;;;22.17;;
13374;SDS011;6756;51.354;15.754;2023-02-15T22:36:33;45.33;;;23.43;;
13374;SDS011;6756;51.354;15.754;2023-02-15T22:40:34;46.23;;;23.57;;
13374;SDS011;6756;51.354;15.754;2023-02-15T22:44:37;43.60;;;23.63;;
13374;SDS011;6756;51.354;15.754;2023-02-15T22:48:38;44.77;;;22.90;;
13374;SDS011;6756;51.354;15.754;2023-02-15T22:52:39;44.10;;;22.47;;
13374;SDS011;6756;51.354;15.754;2023-02-15T22:56:41;41.87;;;21.97;;
13374;SDS011;6756;51.354;15.754;2023-02-15T23:00:52;40.83;;;21.50;;
13374;SDS011;6756;51.354;15.754;2023-02-15T23:04:53;41.17;;;20.80;;
13374;SDS011;6756;51.354;15.754;2023-02-15T23:08:54;40.93;;;21.90;;
13374;SDS011;6756;51.354;15.754;2023-02-15T23:12:57;42.30;;;20.80;;
13374;SDS011;6756;51.354;15.754;2023-02-15T23:17:18;39.40;;;21.30;;
13374;SDS011;6756;51.354;15.754;2023-02-15T23:25:26;38.13;;;21.17;;
13374;SDS011;6756;51.354;15.754;2023-02-15T23:29:27;42.03;;;21.60;;
13374;SDS011;6756;51.354;15.754;2023-02-15T23:33:31;41.07;;;22.20;;
13374;SDS011;6756;51.354;15.754;2023-02-15T23:37:34;37.10;;;21.03;;
13374;SDS011;6756;51.354;15.754;2023-02-15T23:41:34;41.47;;;21.50;;
13374;SDS011;6756;51.354;15.754;2023-02-15T23:45:36;45.10;;;21.37;;
13374;SDS011;6756;51.354;15.754;2023-02-15T23:49:37;31.77;;;18.27;;
13374;SDS011;6756;51.354;15.754;2023-02-15T23:53:38;39.23;;;20.23;;
13374;SDS011;6756;51.354;15.754;2023-02-15T23:57:40;42.00;;;20.23;;
